»·PEaware :: N5939V KMRY-KSGU

N5939V :: KMRY-KSGU

FLIGHT INFORMATION

Flight Status: Arrived
Operator: Privately registered:
United States
More flights under this callsign
Pilot: Anonymous 30260 (30260)
Aircraft: SOCATA TBM-900
(TBM9)
More flights by this aircraft type
Origin: KMRY Monterey Peninsula
United States
Destination: KSGU St George Mun
United States
More flights between these airports :: More routes between these airports
Route: +MRY5 SHOEY SNS PXN NTELL BIH LIDAT BTY
File this flight plan on PilotEdge
Remarks:
Altitude:
(Current/Filed)
29,000ft
Speed:
(Current/Filed)
328kts
Departed: 21-Sep-20 04:28 PM
Arrived: 21-Sep-20 06:11 PM
Distance/Time
Traveled:
401nm/1:43
Distance/Time
To Go:
Arrived

Flight Plot

Page will automatically refresh every two minutes.

Flight plan parsing failed; only flown route is shown


Map Options




Map Legend


Flown Route
Filed Route
Departure Airport
Arrival Airport
Navaid (VOR, NDB)
Fix

Horizontal Profiles

Position Reports

Time Latitude Longitude Heading Altitude Ground
Speed
21-Sep-20 16:09 36.588433 -121.852837 290 171ft 0kts
21-Sep-20 16:09 36.588433 -121.852837 290 171ft 0kts
21-Sep-20 16:10 36.588433 -121.852837 290 171ft 0kts
21-Sep-20 16:11 36.588433 -121.852837 290 171ft 0kts
21-Sep-20 16:12 36.588433 -121.852837 290 171ft 0kts
21-Sep-20 16:13 36.588433 -121.852837 290 171ft 0kts
21-Sep-20 16:14 36.588433 -121.852837 290 171ft 0kts
21-Sep-20 16:15 36.588433 -121.852837 290 171ft 0kts
21-Sep-20 16:16 36.588433 -121.852837 290 171ft 0kts
21-Sep-20 16:17 36.588433 -121.852837 290 171ft 0kts
21-Sep-20 16:18 36.588433 -121.852837 290 171ft 0kts
21-Sep-20 16:19 36.588433 -121.852837 290 171ft 0kts
21-Sep-20 16:20 36.588433 -121.852837 290 171ft 0kts
21-Sep-20 16:21 36.588433 -121.852837 290 171ft 0kts
21-Sep-20 16:22 36.588436 -121.852848 290 171ft 1kts
21-Sep-20 16:23 36.588143 -121.850289 112 175ft 14kts
21-Sep-20 16:24 36.586684 -121.846095 131 194ft 10kts
21-Sep-20 16:25 36.585139 -121.841794 112 228ft 15kts
21-Sep-20 16:26 36.583412 -121.836598 88 245ft 11kts
21-Sep-20 16:27 36.585015 -121.838508 293 242ft 57kts
21-Sep-20 16:28 36.598156 -121.878493 291 1354ft 141kts
21-Sep-20 16:29 36.637041 -121.902600 341 3294ft 154kts
21-Sep-20 16:30 36.681669 -121.917914 341 5353ft 161kts
21-Sep-20 16:31 36.709434 -121.886435 82 7352ft 170kts
21-Sep-20 16:32 36.711218 -121.827060 103 9259ft 174kts
21-Sep-20 16:33 36.698305 -121.763355 105 10570ft 208kts
21-Sep-20 16:34 36.683147 -121.692570 105 12130ft 212kts
21-Sep-20 16:35 36.667155 -121.618501 106 13605ft 219kts
21-Sep-20 16:36 36.668301 -121.535095 86 15110ft 227kts
21-Sep-20 16:37 36.673947 -121.448664 86 16393ft 235kts
21-Sep-20 16:38 36.679600 -121.360871 86 17816ft 242kts
21-Sep-20 16:39 36.685227 -121.272507 86 19117ft 250kts
21-Sep-20 16:40 36.690739 -121.184904 86 20344ft 258kts
21-Sep-20 16:41 36.696651 -121.089931 87 21637ft 267kts
21-Sep-20 16:42 36.703012 -120.986246 87 22844ft 276kts
21-Sep-20 16:43 36.709418 -120.879922 87 23914ft 284kts
21-Sep-20 16:44 36.716121 -120.775146 80 25001ft 293kts
21-Sep-20 16:45 36.737689 -120.673166 75 26181ft 300kts
21-Sep-20 16:46 36.759609 -120.568800 74 27286ft 307kts
21-Sep-20 16:47 36.781821 -120.462505 74 28427ft 312kts
21-Sep-20 16:48 36.804891 -120.351591 74 28953ft 333kts
21-Sep-20 16:49 36.828741 -120.236320 75 28939ft 350kts
21-Sep-20 16:50 36.853407 -120.116441 75 28936ft 355kts
21-Sep-20 16:51 36.878329 -119.994601 75 28937ft 357kts
21-Sep-20 16:52 36.904738 -119.874099 67 28938ft 357kts
21-Sep-20 16:53 36.941835 -119.758321 66 28938ft 357kts
21-Sep-20 16:54 36.978936 -119.642298 66 28940ft 358kts
21-Sep-20 16:55 37.015770 -119.526609 67 28940ft 356kts
21-Sep-20 16:56 37.052278 -119.411459 67 28941ft 354kts
21-Sep-20 16:57 37.088389 -119.297131 68 28935ft 351kts
21-Sep-20 16:58 37.123931 -119.184114 68 29042ft 344kts
21-Sep-20 16:59 37.158886 -119.072542 68 29210ft 340kts
21-Sep-20 17:00 37.194759 -118.957717 69 29228ft 342kts
21-Sep-20 17:01 37.229923 -118.844580 70 29204ft 342kts
21-Sep-20 17:02 37.264914 -118.731486 70 29189ft 340kts
21-Sep-20 17:03 37.300099 -118.617361 70 29100ft 341kts
21-Sep-20 17:04 37.336712 -118.498143 70 29027ft 341kts
21-Sep-20 17:05 37.372916 -118.379427 73 29024ft 339kts
21-Sep-20 17:06 37.383110 -118.250373 89 29026ft 336kts
21-Sep-20 17:07 37.389698 -118.123676 89 29017ft 337kts
21-Sep-20 17:08 37.396146 -117.997075 89 29018ft 337kts
21-Sep-20 17:09 37.402483 -117.869918 89 29018ft 337kts
21-Sep-20 17:10 37.408769 -117.741021 89 29018ft 337kts
21-Sep-20 17:11 37.414949 -117.611460 89 29018ft 337kts
21-Sep-20 17:12 37.420929 -117.483068 89 29064ft 336kts
21-Sep-20 17:13 37.426616 -117.358041 89 29122ft 336kts
21-Sep-20 17:14 37.390661 -117.244892 141 29120ft 316kts
21-Sep-20 17:15 37.311139 -117.176903 149 29127ft 313kts
21-Sep-20 17:16 37.231026 -117.109098 149 29126ft 313kts
21-Sep-20 17:17 37.152945 -117.043146 150 29126ft 314kts
21-Sep-20 17:18 37.076859 -116.979000 151 29125ft 316kts
21-Sep-20 17:19 36.998485 -116.913138 152 29126ft 319kts
21-Sep-20 17:20 36.918684 -116.846311 153 29089ft 323kts
21-Sep-20 17:21 36.841872 -116.781032 146 29017ft 331kts
21-Sep-20 17:22 36.805431 -116.698218 103 28996ft 355kts
21-Sep-20 17:23 36.815740 -116.569104 85 28995ft 361kts
21-Sep-20 17:24 36.827010 -116.438110 86 28996ft 361kts
21-Sep-20 17:25 36.838186 -116.304193 86 28989ft 361kts
21-Sep-20 17:26 36.849555 -116.166003 86 27786ft 384kts
21-Sep-20 17:27 36.861364 -116.020427 86 25863ft 391kts
21-Sep-20 17:28 36.872838 -115.876659 87 23955ft 387kts
21-Sep-20 17:29 36.883769 -115.737466 87 22054ft 373kts
21-Sep-20 17:30 36.894273 -115.601846 87 20158ft 365kts
21-Sep-20 17:31 36.904475 -115.468092 87 18245ft 355kts
21-Sep-20 17:32 36.914393 -115.336047 87 16300ft 346kts
21-Sep-20 17:33 36.923992 -115.206390 87 14322ft 335kts
21-Sep-20 17:34 36.933051 -115.082546 87 12962ft 312kts
21-Sep-20 17:35 36.941172 -114.969553 87 12925ft 291kts
21-Sep-20 17:36 36.948951 -114.859775 87 12919ft 287kts
21-Sep-20 17:37 36.956370 -114.753884 87 12873ft 286kts
21-Sep-20 17:38 36.963586 -114.649614 87 12874ft 286kts
21-Sep-20 17:39 36.970974 -114.541417 87 12880ft 286kts
21-Sep-20 17:40 36.978272 -114.433077 87 12904ft 285kts
21-Sep-20 17:41 36.985165 -114.329382 88 12954ft 285kts
21-Sep-20 17:42 36.992181 -114.222401 88 13001ft 285kts
21-Sep-20 17:43 36.998839 -114.119414 88 13002ft 286kts
21-Sep-20 17:44 37.005455 -114.015680 88 13002ft 287kts
21-Sep-20 17:45 37.012122 -113.909706 88 13002ft 287kts
21-Sep-20 17:46 37.028996 -113.806058 41 12990ft 295kts
21-Sep-20 17:47 37.114850 -113.776104 12 13016ft 295kts
21-Sep-20 17:48 37.202485 -113.752057 9 13033ft 296kts
21-Sep-20 17:50 37.288750 -113.727069 11 12999ft 296kts
21-Sep-20 17:51 37.370515 -113.684110 31 13001ft 297kts
21-Sep-20 17:52 37.445644 -113.625641 31 13001ft 297kts
21-Sep-20 17:53 37.520013 -113.567732 30 13050ft 296kts
21-Sep-20 17:54 37.594949 -113.509235 30 13133ft 295kts
21-Sep-20 17:55 37.669301 -113.451162 30 13148ft 297kts
21-Sep-20 17:56 37.696580 -113.366345 131 13150ft 270kts
21-Sep-20 17:57 37.660088 -113.282061 120 13191ft 264kts
21-Sep-20 17:58 37.625253 -113.202582 123 13189ft 251kts
21-Sep-20 17:59 37.577004 -113.161769 195 13075ft 221kts
21-Sep-20 18:00 37.517567 -113.180409 198 12517ft 211kts
21-Sep-20 18:01 37.460142 -113.206612 212 12442ft 204kts
21-Sep-20 18:02 37.406130 -113.246685 210 10738ft 219kts
21-Sep-20 18:03 37.348685 -113.291692 211 8197ft 223kts
21-Sep-20 18:04 37.293331 -113.335773 210 7894ft 206kts
21-Sep-20 18:05 37.238803 -113.373032 198 7432ft 192kts
21-Sep-20 18:06 37.190095 -113.403032 211 6248ft 172kts
21-Sep-20 18:07 37.148785 -113.433127 209 5264ft 168kts
21-Sep-20 18:07 37.116838 -113.456508 208 4422ft 120kts
21-Sep-20 18:09 37.082330 -113.485967 208 3779ft 119kts
21-Sep-20 18:10 37.056765 -113.499490 201 3108ft 85kts
21-Sep-20 18:10 37.040655 -113.508037 204 2875ft 28kts
21-Sep-20 18:11 37.034986 -113.511038 203 2864ft 23kts
21-Sep-20 18:12 37.031148 -113.510954 71 2845ft 12kts
21-Sep-20 18:13 37.035134 -113.508716 22 2862ft 18kts
21-Sep-20 18:14 37.037538 -113.505476 76 2861ft 9kts
21-Sep-20 18:15 37.037834 -113.505179 22 2860ft 0kts

Navigation Log

Ident Type
Flight plan parsing failed, navigation log unavailable